sensor_id;sensor_type;location;lat;lon;timestamp;temperature;humidity
28761;DHT22;15917;50.014;8.352;2023-10-08T00:02:18;16.00;99.90
28761;DHT22;15917;50.014;8.352;2023-10-08T00:04:48;16.00;99.90
28761;DHT22;15917;50.014;8.352;2023-10-08T00:07:16;16.00;99.90
28761;DHT22;15917;50.014;8.352;2023-10-08T00:09:49;16.00;99.90
28761;DHT22;15917;50.014;8.352;2023-10-08T00:12:17;16.00;99.90
28761;DHT22;15917;50.014;8.352;2023-10-08T00:14:42;15.90;99.90
28761;DHT22;15917;50.014;8.352;2023-10-08T00:17:15;16.00;99.90
28761;DHT22;15917;50.014;8.352;2023-10-08T00:19:41;15.90;99.90
28761;DHT22;15917;50.014;8.352;2023-10-08T00:22:08;15.90;99.90
28761;DHT22;15917;50.014;8.352;2023-10-08T00:24:35;15.90;99.90
28761;DHT22;15917;50.014;8.352;2023-10-08T00:27:01;15.90;99.90
28761;DHT22;15917;50.014;8.352;2023-10-08T00:29:28;16.00;99.90
28761;DHT22;15917;50.014;8.352;2023-10-08T00:31:56;16.00;99.90
28761;DHT22;15917;50.014;8.352;2023-10-08T00:34:22;15.90;99.90
28761;DHT22;15917;50.014;8.352;2023-10-08T00:36:49;15.90;99.90
28761;DHT22;15917;50.014;8.352;2023-10-08T00:39:15;15.90;99.90
28761;DHT22;15917;50.014;8.352;2023-10-08T00:41:48;16.00;99.90
28761;DHT22;15917;50.014;8.352;2023-10-08T00:44:14;16.00;99.90
28761;DHT22;15917;50.014;8.352;2023-10-08T00:46:49;16.00;99.90
28761;DHT22;15917;50.014;8.352;2023-10-08T00:49:15;16.00;99.90
28761;DHT22;15917;50.014;8.352;2023-10-08T00:51:50;16.00;99.90
28761;DHT22;15917;50.014;8.352;2023-10-08T00:54:37;16.00;99.90
28761;DHT22;15917;50.014;8.352;2023-10-08T00:57:27;16.00;99.90
28761;DHT22;15917;50.014;8.352;2023-10-08T00:59:55;16.00;99.90
28761;DHT22;15917;50.014;8.352;2023-10-08T01:02:25;15.90;99.90
28761;DHT22;15917;50.014;8.352;2023-10-08T01:04:54;16.00;99.90
28761;DHT22;15917;50.014;8.352;2023-10-08T01:07:20;16.00;99.90
28761;DHT22;15917;50.014;8.352;2023-10-08T01:09:47;16.00;99.90
28761;DHT22;15917;50.014;8.352;2023-10-08T01:14:46;16.00;99.90
28761;DHT22;15917;50.014;8.352;2023-10-08T01:17:14;16.00;99.90
28761;DHT22;15917;50.014;8.352;2023-10-08T01:19:45;16.10;99.90
28761;DHT22;15917;50.014;8.352;2023-10-08T01:22:13;16.10;99.90
28761;DHT22;15917;50.014;8.352;2023-10-08T01:24:47;16.10;99.90
28761;DHT22;15917;50.014;8.352;2023-10-08T01:27:14;16.10;99.90
28761;DHT22;15917;50.014;8.352;2023-10-08T01:29:46;16.10;99.90
28761;DHT22;15917;50.014;8.352;2023-10-08T01:32:11;16.10;99.90
28761;DHT22;15917;50.014;8.352;2023-10-08T01:34:41;16.10;99.90
28761;DHT22;15917;50.014;8.352;2023-10-08T01:37:14;16.10;99.90
28761;DHT22;15917;50.014;8.352;2023-10-08T01:39:40;16.10;99.90
28761;DHT22;15917;50.014;8.352;2023-10-08T01:42:08;16.10;99.90
28761;DHT22;15917;50.014;8.352;2023-10-08T01:44:42;16.10;99.90
28761;DHT22;15917;50.014;8.352;2023-10-08T01:47:11;16.10;99.90
28761;DHT22;15917;50.014;8.352;2023-10-08T01:49:37;16.10;99.90
28761;DHT22;15917;50.014;8.352;2023-10-08T01:52:04;16.10;99.90
28761;DHT22;15917;50.014;8.352;2023-10-08T01:54:44;16.10;99.90
28761;DHT22;15917;50.014;8.352;2023-10-08T01:57:10;16.10;99.90
28761;DHT22;15917;50.014;8.352;2023-10-08T01:59:37;16.10;99.90
28761;DHT22;15917;50.014;8.352;2023-10-08T02:02:04;16.00;99.90
28761;DHT22;15917;50.014;8.352;2023-10-08T02:04:32;16.00;99.90
28761;DHT22;15917;50.014;8.352;2023-10-08T02:06:59;16.00;99.90
28761;DHT22;15917;50.014;8.352;2023-10-08T02:09:25;16.00;99.90
28761;DHT22;15917;50.014;8.352;2023-10-08T02:11:52;15.90;99.90
28761;DHT22;15917;50.014;8.352;2023-10-08T02:14:19;16.00;99.90
28761;DHT22;15917;50.014;8.352;2023-10-08T02:16:51;16.00;99.90
28761;DHT22;15917;50.014;8.352;2023-10-08T02:19:21;16.00;99.90
28761;DHT22;15917;50.014;8.352;2023-10-08T02:21:55;16.00;99.90
28761;DHT22;15917;50.014;8.352;2023-10-08T02:24:22;16.00;99.90
28761;DHT22;15917;50.014;8.352;2023-10-08T02:26:51;16.00;99.90
28761;DHT22;15917;50.014;8.352;2023-10-08T02:29:17;16.00;99.90
28761;DHT22;15917;50.014;8.352;2023-10-08T02:31:42;16.00;99.90
28761;DHT22;15917;50.014;8.352;2023-10-08T02:34:08;15.90;99.90
28761;DHT22;15917;50.014;8.352;2023-10-08T02:36:37;15.90;99.90
28761;DHT22;15917;50.014;8.352;2023-10-08T02:39:03;15.90;99.90
28761;DHT22;15917;50.014;8.352;2023-10-08T02:41:51;15.90;99.90
28761;DHT22;15917;50.014;8.352;2023-10-08T02:44:18;15.90;99.90
28761;DHT22;15917;50.014;8.352;2023-10-08T02:46:44;15.80;99.90
28761;DHT22;15917;50.014;8.352;2023-10-08T02:49:13;15.80;99.90
28761;DHT22;15917;50.014;8.352;2023-10-08T02:51:42;15.80;99.90
28761;DHT22;15917;50.014;8.352;2023-10-08T02:54:10;15.80;99.90
28761;DHT22;15917;50.014;8.352;2023-10-08T02:56:44;15.70;99.90
28761;DHT22;15917;50.014;8.352;2023-10-08T02:59:10;15.70;99.90
28761;DHT22;15917;50.014;8.352;2023-10-08T03:01:38;15.60;99.90
28761;DHT22;15917;50.014;8.352;2023-10-08T03:04:06;15.60;99.90
28761;DHT22;15917;50.014;8.352;2023-10-08T03:06:34;15.60;99.90
28761;DHT22;15917;50.014;8.352;2023-10-08T03:09:01;15.60;99.90
28761;DHT22;15917;50.014;8.352;2023-10-08T03:11:30;15.60;99.90
28761;DHT22;15917;50.014;8.352;2023-10-08T03:13:57;15.70;99.90
28761;DHT22;15917;50.014;8.352;2023-10-08T03:16:22;15.70;99.90
28761;DHT22;15917;50.014;8.352;2023-10-08T03:18:54;15.60;99.90
28761;DHT22;15917;50.014;8.352;2023-10-08T03:21:22;15.60;99.90
28761;DHT22;15917;50.014;8.352;2023-10-08T03:24:08;15.60;99.90
28761;DHT22;15917;50.014;8.352;2023-10-08T03:26:58;15.60;99.90
28761;DHT22;15917;50.014;8.352;2023-10-08T03:29:41;15.60;99.90
28761;DHT22;15917;50.014;8.352;2023-10-08T03:32:09;15.50;99.90
28761;DHT22;15917;50.014;8.352;2023-10-08T03:34:45;15.50;99.90
28761;DHT22;15917;50.014;8.352;2023-10-08T03:37:12;15.50;99.90
28761;DHT22;15917;50.014;8.352;2023-10-08T03:39:45;15.50;99.90
28761;DHT22;15917;50.014;8.352;2023-10-08T03:42:23;15.50;99.90
28761;DHT22;15917;50.014;8.352;2023-10-08T03:44:52;15.50;99.90
28761;DHT22;15917;50.014;8.352;2023-10-08T03:47:18;15.50;99.90
28761;DHT22;15917;50.014;8.352;2023-10-08T03:49:47;15.50;99.90
28761;DHT22;15917;50.014;8.352;2023-10-08T03:52:16;15.40;99.90
28761;DHT22;15917;50.014;8.352;2023-10-08T03:54:41;15.40;99.90
28761;DHT22;15917;50.014;8.352;2023-10-08T03:57:36;15.40;99.90
28761;DHT22;15917;50.014;8.352;2023-10-08T04:00:08;15.40;99.90
28761;DHT22;15917;50.014;8.352;2023-10-08T04:02:38;15.40;99.90
28761;DHT22;15917;50.014;8.352;2023-10-08T04:05:11;15.40;99.90
28761;DHT22;15917;50.014;8.352;2023-10-08T04:07:48;15.40;99.90
28761;DHT22;15917;50.014;8.352;2023-10-08T04:10:34;15.30;99.90
28761;DHT22;15917;50.014;8.352;2023-10-08T04:13:20;15.30;99.90
28761;DHT22;15917;50.014;8.352;2023-10-08T04:15:46;15.30;99.90
28761;DHT22;15917;50.014;8.352;2023-10-08T04:18:11;15.30;99.90
28761;DHT22;15917;50.014;8.352;2023-10-08T04:20:38;15.30;99.90
28761;DHT22;15917;50.014;8.352;2023-10-08T04:23:08;15.30;99.90
28761;DHT22;15917;50.014;8.352;2023-10-08T04:25:43;15.30;99.90
28761;DHT22;15917;50.014;8.352;2023-10-08T04:28:08;15.20;99.90
28761;DHT22;15917;50.014;8.352;2023-10-08T04:30:39;15.20;99.90
28761;DHT22;15917;50.014;8.352;2023-10-08T04:33:07;15.10;99.90
28761;DHT22;15917;50.014;8.352;2023-10-08T04:35:33;15.00;99.90
28761;DHT22;15917;50.014;8.352;2023-10-08T04:38:04;15.00;99.90
28761;DHT22;15917;50.014;8.352;2023-10-08T04:40:37;14.90;99.90
28761;DHT22;15917;50.014;8.352;2023-10-08T04:43:13;14.80;99.90
28761;DHT22;15917;50.014;8.352;2023-10-08T04:45:40;14.70;99.90
28761;DHT22;15917;50.014;8.352;2023-10-08T04:48:06;14.70;99.90
28761;DHT22;15917;50.014;8.352;2023-10-08T04:50:35;14.70;99.90
28761;DHT22;15917;50.014;8.352;2023-10-08T04:53:02;14.60;99.90
28761;DHT22;15917;50.014;8.352;2023-10-08T04:55:36;14.60;99.90
28761;DHT22;15917;50.014;8.352;2023-10-08T04:58:07;14.60;99.90
28761;DHT22;15917;50.014;8.352;2023-10-08T05:00:45;14.60;99.90
28761;DHT22;15917;50.014;8.352;2023-10-08T05:03:22;14.60;99.90
28761;DHT22;15917;50.014;8.352;2023-10-08T05:05:49;14.60;99.90
28761;DHT22;15917;50.014;8.352;2023-10-08T05:08:27;14.70;99.90
28761;DHT22;15917;50.014;8.352;2023-10-08T05:11:13;14.70;99.90
28761;DHT22;15917;50.014;8.352;2023-10-08T05:13:50;14.50;99.90
28761;DHT22;15917;50.014;8.352;2023-10-08T05:16:26;14.60;99.90
28761;DHT22;15917;50.014;8.352;2023-10-08T05:19:02;14.60;99.90
28761;DHT22;15917;50.014;8.352;2023-10-08T05:21:54;14.70;99.90
28761;DHT22;15917;50.014;8.352;2023-10-08T05:24:31;14.70;99.90
28761;DHT22;15917;50.014;8.352;2023-10-08T05:27:04;14.70;99.90
28761;DHT22;15917;50.014;8.352;2023-10-08T05:29:48;14.70;99.90
28761;DHT22;15917;50.014;8.352;2023-10-08T05:32:32;14.70;99.90
28761;DHT22;15917;50.014;8.352;2023-10-08T05:35:11;14.70;99.90
28761;DHT22;15917;50.014;8.352;2023-10-08T05:37:57;14.70;99.90
28761;DHT22;15917;50.014;8.352;2023-10-08T05:40:38;14.80;99.90
28761;DHT22;15917;50.014;8.352;2023-10-08T05:43:22;14.80;99.90
28761;DHT22;15917;50.014;8.352;2023-10-08T05:48:51;14.80;99.90
28761;DHT22;15917;50.014;8.352;2023-10-08T05:51:37;14.90;99.90
28761;DHT22;15917;50.014;8.352;2023-10-08T05:54:12;14.90;99.90
28761;DHT22;15917;50.014;8.352;2023-10-08T05:56:58;14.90;99.90
28761;DHT22;15917;50.014;8.352;2023-10-08T05:59:50;14.90;99.90
28761;DHT22;15917;50.014;8.352;2023-10-08T06:02:40;14.90;99.90
28761;DHT22;15917;50.014;8.352;2023-10-08T06:05:11;14.90;99.90
28761;DHT22;15917;50.014;8.352;2023-10-08T06:15:28;15.10;99.90
28761;DHT22;15917;50.014;8.352;2023-10-08T06:18:12;15.10;99.90
28761;DHT22;15917;50.014;8.352;2023-10-08T06:20:40;15.10;99.90
28761;DHT22;15917;50.014;8.352;2023-10-08T06:23:09;15.20;99.90
28761;DHT22;15917;50.014;8.352;2023-10-08T06:25:34;15.20;99.90
28761;DHT22;15917;50.014;8.352;2023-10-08T06:28:13;15.20;99.90
28761;DHT22;15917;50.014;8.352;2023-10-08T06:30:40;15.20;99.90
28761;DHT22;15917;50.014;8.352;2023-10-08T06:33:06;15.20;99.90
28761;DHT22;15917;50.014;8.352;2023-10-08T06:35:32;15.20;99.90
28761;DHT22;15917;50.014;8.352;2023-10-08T06:37:58;15.20;99.90
28761;DHT22;15917;50.014;8.352;2023-10-08T06:40:35;15.20;99.90
28761;DHT22;15917;50.014;8.352;2023-10-08T06:43:01;15.20;99.90
28761;DHT22;15917;50.014;8.352;2023-10-08T06:45:47;15.30;99.90
28761;DHT22;15917;50.014;8.352;2023-10-08T06:48:17;15.30;99.90
28761;DHT22;15917;50.014;8.352;2023-10-08T06:50:44;15.30;99.90
28761;DHT22;15917;50.014;8.352;2023-10-08T06:53:10;15.30;99.90
28761;DHT22;15917;50.014;8.352;2023-10-08T06:55:39;15.40;99.90
28761;DHT22;15917;50.014;8.352;2023-10-08T06:58:05;15.40;99.90
28761;DHT22;15917;50.014;8.352;2023-10-08T07:00:32;15.50;99.90
28761;DHT22;15917;50.014;8.352;2023-10-08T07:03:04;15.50;99.90
28761;DHT22;15917;50.014;8.352;2023-10-08T07:05:32;15.60;99.90
28761;DHT22;15917;50.014;8.352;2023-10-08T07:08:02;15.70;99.90
28761;DHT22;15917;50.014;8.352;2023-10-08T07:10:35;15.70;99.90
28761;DHT22;15917;50.014;8.352;2023-10-08T07:13:00;15.80;99.90
28761;DHT22;15917;50.014;8.352;2023-10-08T07:15:28;15.80;99.90
28761;DHT22;15917;50.014;8.352;2023-10-08T07:17:56;15.80;99.90
28761;DHT22;15917;50.014;8.352;2023-10-08T07:20:21;15.90;99.90
28761;DHT22;15917;50.014;8.352;2023-10-08T07:22:47;15.90;99.90
28761;DHT22;15917;50.014;8.352;2023-10-08T07:25:22;15.90;99.90
28761;DHT22;15917;50.014;8.352;2023-10-08T07:27:48;16.00;99.90
28761;DHT22;15917;50.014;8.352;2023-10-08T07:30:14;16.10;99.90
28761;DHT22;15917;50.014;8.352;2023-10-08T07:32:54;16.20;99.90
28761;DHT22;15917;50.014;8.352;2023-10-08T07:35:20;16.40;99.90
28761;DHT22;15917;50.014;8.352;2023-10-08T07:37:45;16.50;99.90
28761;DHT22;15917;50.014;8.352;2023-10-08T07:40:12;16.60;99.90
28761;DHT22;15917;50.014;8.352;2023-10-08T07:42:38;16.50;99.90
28761;DHT22;15917;50.014;8.352;2023-10-08T07:45:04;16.30;99.90
28761;DHT22;15917;50.014;8.352;2023-10-08T07:47:30;16.30;99.90
28761;DHT22;15917;50.014;8.352;2023-10-08T07:49:56;16.30;99.90
28761;DHT22;15917;50.014;8.352;2023-10-08T07:52:21;16.20;99.90
28761;DHT22;15917;50.014;8.352;2023-10-08T07:54:47;16.20;99.90
28761;DHT22;15917;50.014;8.352;2023-10-08T07:57:13;16.20;99.90
28761;DHT22;15917;50.014;8.352;2023-10-08T07:59:43;16.10;99.90
28761;DHT22;15917;50.014;8.352;2023-10-08T08:02:12;16.10;99.90
28761;DHT22;15917;50.014;8.352;2023-10-08T08:04:41;16.00;99.90
28761;DHT22;15917;50.014;8.352;2023-10-08T08:07:08;16.00;99.90
28761;DHT22;15917;50.014;8.352;2023-10-08T08:09:44;16.10;99.90
28761;DHT22;15917;50.014;8.352;2023-10-08T08:12:20;16.10;99.90
28761;DHT22;15917;50.014;8.352;2023-10-08T08:14:47;16.10;99.90
28761;DHT22;15917;50.014;8.352;2023-10-08T08:17:13;16.10;99.90
28761;DHT22;15917;50.014;8.352;2023-10-08T08:19:40;16.20;99.90
28761;DHT22;15917;50.014;8.352;2023-10-08T08:22:05;16.20;99.90
28761;DHT22;15917;50.014;8.352;2023-10-08T08:24:31;16.30;99.90
28761;DHT22;15917;50.014;8.352;2023-10-08T08:27:01;16.40;99.90
28761;DHT22;15917;50.014;8.352;2023-10-08T08:29:33;16.40;99.90
28761;DHT22;15917;50.014;8.352;2023-10-08T08:32:12;16.50;99.90
28761;DHT22;15917;50.014;8.352;2023-10-08T08:34:44;16.50;99.90
28761;DHT22;15917;50.014;8.352;2023-10-08T08:37:11;16.60;99.90
28761;DHT22;15917;50.014;8.352;2023-10-08T08:39:37;16.60;99.90
28761;DHT22;15917;50.014;8.352;2023-10-08T08:42:03;16.60;99.90
28761;DHT22;15917;50.014;8.352;2023-10-08T08:44:30;16.70;99.90
28761;DHT22;15917;50.014;8.352;2023-10-08T08:47:00;16.70;99.90
28761;DHT22;15917;50.014;8.352;2023-10-08T08:49:33;16.70;99.90
28761;DHT22;15917;50.014;8.352;2023-10-08T08:52:00;16.80;99.90
28761;DHT22;15917;50.014;8.352;2023-10-08T08:54:29;16.80;99.90
28761;DHT22;15917;50.014;8.352;2023-10-08T08:56:59;16.90;99.90
28761;DHT22;15917;50.014;8.352;2023-10-08T08:59:27;17.00;99.90
28761;DHT22;15917;50.014;8.352;2023-10-08T09:01:58;17.10;99.90
28761;DHT22;15917;50.014;8.352;2023-10-08T09:04:31;17.20;99.90
28761;DHT22;15917;50.014;8.352;2023-10-08T09:07:01;17.40;99.90
28761;DHT22;15917;50.014;8.352;2023-10-08T09:09:35;17.50;99.90
28761;DHT22;15917;50.014;8.352;2023-10-08T09:12:05;17.70;99.90
28761;DHT22;15917;50.014;8.352;2023-10-08T09:14:30;17.80;99.90
28761;DHT22;15917;50.014;8.352;2023-10-08T09:16:57;17.90;99.90
28761;DHT22;15917;50.014;8.352;2023-10-08T09:19:25;18.00;99.90
28761;DHT22;15917;50.014;8.352;2023-10-08T09:21:59;18.10;99.90
28761;DHT22;15917;50.014;8.352;2023-10-08T09:24:24;18.30;99.90
28761;DHT22;15917;50.014;8.352;2023-10-08T09:26:54;18.20;99.90
28761;DHT22;15917;50.014;8.352;2023-10-08T09:29:24;18.30;99.90
28761;DHT22;15917;50.014;8.352;2023-10-08T09:31:55;18.40;99.90
28761;DHT22;15917;50.014;8.352;2023-10-08T09:34:21;18.60;99.90
28761;DHT22;15917;50.014;8.352;2023-10-08T09:36:48;18.70;99.90
28761;DHT22;15917;50.014;8.352;2023-10-08T09:39:14;18.90;99.90
28761;DHT22;15917;50.014;8.352;2023-10-08T09:41:55;19.10;99.90
28761;DHT22;15917;50.014;8.352;2023-10-08T09:44:21;19.30;99.90
28761;DHT22;15917;50.014;8.352;2023-10-08T09:46:48;19.20;99.90
28761;DHT22;15917;50.014;8.352;2023-10-08T09:49:16;19.10;99.90
28761;DHT22;15917;50.014;8.352;2023-10-08T09:51:44;19.10;99.90
28761;DHT22;15917;50.014;8.352;2023-10-08T09:54:11;19.00;99.90
28761;DHT22;15917;50.014;8.352;2023-10-08T09:56:39;19.00;99.90
28761;DHT22;15917;50.014;8.352;2023-10-08T09:59:05;19.00;99.90
28761;DHT22;15917;50.014;8.352;2023-10-08T10:01:32;19.00;99.90
28761;DHT22;15917;50.014;8.352;2023-10-08T10:03:59;19.00;99.90
28761;DHT22;15917;50.014;8.352;2023-10-08T10:06:28;19.00;99.90
28761;DHT22;15917;50.014;8.352;2023-10-08T10:08:55;19.00;99.90
28761;DHT22;15917;50.014;8.352;2023-10-08T10:11:25;19.00;99.90
28761;DHT22;15917;50.014;8.352;2023-10-08T10:13:58;19.10;99.90
28761;DHT22;15917;50.014;8.352;2023-10-08T10:16:27;19.20;99.90
28761;DHT22;15917;50.014;8.352;2023-10-08T10:18:56;19.30;99.90
28761;DHT22;15917;50.014;8.352;2023-10-08T10:21:32;19.40;99.90
28761;DHT22;15917;50.014;8.352;2023-10-08T10:24:00;19.50;99.90
28761;DHT22;15917;50.014;8.352;2023-10-08T10:26:35;19.60;99.90
28761;DHT22;15917;50.014;8.352;2023-10-08T10:31:33;19.80;99.90
28761;DHT22;15917;50.014;8.352;2023-10-08T10:34:04;19.80;99.90
28761;DHT22;15917;50.014;8.352;2023-10-08T10:36:29;19.80;99.90
28761;DHT22;15917;50.014;8.352;2023-10-08T10:38:56;19.80;99.90
28761;DHT22;15917;50.014;8.352;2023-10-08T10:41:22;19.80;99.90
28761;DHT22;15917;50.014;8.352;2023-10-08T10:43:47;20.00;99.90
28761;DHT22;15917;50.014;8.352;2023-10-08T10:46:18;20.20;99.90
28761;DHT22;15917;50.014;8.352;2023-10-08T10:48:59;20.60;99.90
28761;DHT22;15917;50.014;8.352;2023-10-08T10:51:43;21.00;99.90
28761;DHT22;15917;50.014;8.352;2023-10-08T10:54:09;21.10;99.90
28761;DHT22;15917;50.014;8.352;2023-10-08T10:56:45;21.30;99.90
28761;DHT22;15917;50.014;8.352;2023-10-08T10:59:12;21.50;99.90
28761;DHT22;15917;50.014;8.352;2023-10-08T11:01:50;21.70;99.90
28761;DHT22;15917;50.014;8.352;2023-10-08T11:04:30;21.80;99.90
28761;DHT22;15917;50.014;8.352;2023-10-08T11:06:56;22.00;99.90
28761;DHT22;15917;50.014;8.352;2023-10-08T11:09:26;22.30;99.90
28761;DHT22;15917;50.014;8.352;2023-10-08T11:12:02;22.10;99.90
28761;DHT22;15917;50.014;8.352;2023-10-08T11:14:28;21.90;99.90
28761;DHT22;15917;50.014;8.352;2023-10-08T11:16:54;21.70;99.90
28761;DHT22;15917;50.014;8.352;2023-10-08T11:19:20;21.70;99.90
28761;DHT22;15917;50.014;8.352;2023-10-08T11:21:49;21.70;99.90
28761;DHT22;15917;50.014;8.352;2023-10-08T11:24:26;21.70;99.90
28761;DHT22;15917;50.014;8.352;2023-10-08T11:26:52;21.70;99.90
28761;DHT22;15917;50.014;8.352;2023-10-08T11:29:36;21.70;99.90
28761;DHT22;15917;50.014;8.352;2023-10-08T11:32:04;21.60;99.90
28761;DHT22;15917;50.014;8.352;2023-10-08T11:34:32;21.50;99.90
28761;DHT22;15917;50.014;8.352;2023-10-08T11:37:05;21.40;99.90
28761;DHT22;15917;50.014;8.352;2023-10-08T11:39:45;21.20;99.90
28761;DHT22;15917;50.014;8.352;2023-10-08T11:42:11;21.20;99.90
28761;DHT22;15917;50.014;8.352;2023-10-08T11:44:56;21.20;99.90
28761;DHT22;15917;50.014;8.352;2023-10-08T11:47:25;21.10;99.90
28761;DHT22;15917;50.014;8.352;2023-10-08T11:49:56;21.10;99.90
28761;DHT22;15917;50.014;8.352;2023-10-08T11:52:35;21.10;99.90
28761;DHT22;15917;50.014;8.352;2023-10-08T11:55:07;21.20;99.90
28761;DHT22;15917;50.014;8.352;2023-10-08T11:57:33;21.30;99.90
28761;DHT22;15917;50.014;8.352;2023-10-08T12:00:01;21.30;99.90
28761;DHT22;15917;50.014;8.352;2023-10-08T12:02:42;21.40;99.90
28761;DHT22;15917;50.014;8.352;2023-10-08T12:05:09;21.40;99.90
28761;DHT22;15917;50.014;8.352;2023-10-08T12:07:46;21.60;99.90
28761;DHT22;15917;50.014;8.352;2023-10-08T12:10:12;21.70;99.90
28761;DHT22;15917;50.014;8.352;2023-10-08T12:12:38;21.80;99.90
28761;DHT22;15917;50.014;8.352;2023-10-08T12:15:04;21.90;99.90
28761;DHT22;15917;50.014;8.352;2023-10-08T12:17:29;22.10;99.90
28761;DHT22;15917;50.014;8.352;2023-10-08T12:20:07;22.30;99.90
28761;DHT22;15917;50.014;8.352;2023-10-08T12:22:49;22.50;99.90
28761;DHT22;15917;50.014;8.352;2023-10-08T12:25:15;22.50;99.90
28761;DHT22;15917;50.014;8.352;2023-10-08T12:27:40;22.40;99.90
28761;DHT22;15917;50.014;8.352;2023-10-08T12:30:06;22.40;99.90
28761;DHT22;15917;50.014;8.352;2023-10-08T12:32:39;22.50;99.90
28761;DHT22;15917;50.014;8.352;2023-10-08T12:35:08;22.80;99.90
28761;DHT22;15917;50.014;8.352;2023-10-08T12:37:41;22.90;99.90
28761;DHT22;15917;50.014;8.352;2023-10-08T12:40:09;23.10;99.90
28761;DHT22;15917;50.014;8.352;2023-10-08T12:42:48;23.20;99.90
28761;DHT22;15917;50.014;8.352;2023-10-08T12:45:13;23.30;99.90
28761;DHT22;15917;50.014;8.352;2023-10-08T12:47:39;23.20;99.90
28761;DHT22;15917;50.014;8.352;2023-10-08T12:50:04;23.30;99.90
28761;DHT22;15917;50.014;8.352;2023-10-08T12:52:33;23.30;99.90
28761;DHT22;15917;50.014;8.352;2023-10-08T12:55:00;23.50;99.90
28761;DHT22;15917;50.014;8.352;2023-10-08T12:57:30;23.60;99.90
28761;DHT22;15917;50.014;8.352;2023-10-08T13:00:00;23.60;99.90
28761;DHT22;15917;50.014;8.352;2023-10-08T13:02:26;23.70;99.90
28761;DHT22;15917;50.014;8.352;2023-10-08T13:04:54;23.70;99.90
28761;DHT22;15917;50.014;8.352;2023-10-08T13:07:20;23.60;99.90
28761;DHT22;15917;50.014;8.352;2023-10-08T13:09:47;23.80;99.90
28761;DHT22;15917;50.014;8.352;2023-10-08T13:12:13;24.00;99.90
28761;DHT22;15917;50.014;8.352;2023-10-08T13:14:40;24.00;99.90
28761;DHT22;15917;50.014;8.352;2023-10-08T13:17:06;24.10;99.90
28761;DHT22;15917;50.014;8.352;2023-10-08T13:19:38;23.90;99.90
28761;DHT22;15917;50.014;8.352;2023-10-08T13:22:04;23.80;99.90
28761;DHT22;15917;50.014;8.352;2023-10-08T13:24:32;24.00;99.90
28761;DHT22;15917;50.014;8.352;2023-10-08T13:26:58;24.30;99.90
28761;DHT22;15917;50.014;8.352;2023-10-08T13:29:24;24.60;99.90
28761;DHT22;15917;50.014;8.352;2023-10-08T13:31:52;24.80;99.90
28761;DHT22;15917;50.014;8.352;2023-10-08T13:34:19;24.70;99.90
28761;DHT22;15917;50.014;8.352;2023-10-08T13:36:46;24.90;99.90
28761;DHT22;15917;50.014;8.352;2023-10-08T13:39:14;25.00;99.90
28761;DHT22;15917;50.014;8.352;2023-10-08T13:41:49;25.00;99.90
28761;DHT22;15917;50.014;8.352;2023-10-08T13:44:17;25.10;99.90
28761;DHT22;15917;50.014;8.352;2023-10-08T13:46:44;25.00;99.90
28761;DHT22;15917;50.014;8.352;2023-10-08T13:49:15;24.60;99.90
28761;DHT22;15917;50.014;8.352;2023-10-08T13:51:41;24.40;99.90
28761;DHT22;15917;50.014;8.352;2023-10-08T13:54:09;24.20;99.90
28761;DHT22;15917;50.014;8.352;2023-10-08T13:56:36;23.90;99.90
28761;DHT22;15917;50.014;8.352;2023-10-08T13:59:03;23.70;99.90
28761;DHT22;15917;50.014;8.352;2023-10-08T14:01:38;23.60;99.90
28761;DHT22;15917;50.014;8.352;2023-10-08T14:04:06;23.40;99.90
28761;DHT22;15917;50.014;8.352;2023-10-08T14:06:35;23.30;99.90
28761;DHT22;15917;50.014;8.352;2023-10-08T14:09:01;23.10;99.90
28761;DHT22;15917;50.014;8.352;2023-10-08T14:11:27;22.80;99.90
28761;DHT22;15917;50.014;8.352;2023-10-08T14:13:59;22.70;99.90
28761;DHT22;15917;50.014;8.352;2023-10-08T14:16:28;22.50;99.90
28761;DHT22;15917;50.014;8.352;2023-10-08T14:18:54;22.40;99.90
28761;DHT22;15917;50.014;8.352;2023-10-08T14:21:20;22.30;99.90
28761;DHT22;15917;50.014;8.352;2023-10-08T14:23:50;22.30;99.90
28761;DHT22;15917;50.014;8.352;2023-10-08T14:26:17;22.40;99.90
28761;DHT22;15917;50.014;8.352;2023-10-08T14:28:47;22.50;99.90
28761;DHT22;15917;50.014;8.352;2023-10-08T14:31:20;22.60;99.90
28761;DHT22;15917;50.014;8.352;2023-10-08T14:33:48;22.80;99.90
28761;DHT22;15917;50.014;8.352;2023-10-08T14:36:45;23.10;99.90
28761;DHT22;15917;50.014;8.352;2023-10-08T14:39:29;23.60;99.90
28761;DHT22;15917;50.014;8.352;2023-10-08T14:42:13;23.90;99.90
28761;DHT22;15917;50.014;8.352;2023-10-08T14:44:57;24.00;99.90
28761;DHT22;15917;50.014;8.352;2023-10-08T14:47:23;24.10;99.90
28761;DHT22;15917;50.014;8.352;2023-10-08T14:49:49;23.90;99.90
28761;DHT22;15917;50.014;8.352;2023-10-08T14:52:14;23.80;99.90
28761;DHT22;15917;50.014;8.352;2023-10-08T14:54:40;23.60;99.90
28761;DHT22;15917;50.014;8.352;2023-10-08T14:57:07;23.50;99.90
28761;DHT22;15917;50.014;8.352;2023-10-08T14:59:32;23.40;99.90
28761;DHT22;15917;50.014;8.352;2023-10-08T15:01:58;23.30;99.90
28761;DHT22;15917;50.014;8.352;2023-10-08T15:04:24;23.10;99.90
28761;DHT22;15917;50.014;8.352;2023-10-08T15:06:51;23.00;99.90
28761;DHT22;15917;50.014;8.352;2023-10-08T15:09:17;22.90;99.90
28761;DHT22;15917;50.014;8.352;2023-10-08T15:11:52;22.80;99.90
28761;DHT22;15917;50.014;8.352;2023-10-08T15:14:21;22.80;99.90
28761;DHT22;15917;50.014;8.352;2023-10-08T15:16:49;22.70;99.90
28761;DHT22;15917;50.014;8.352;2023-10-08T15:19:22;22.70;99.90
28761;DHT22;15917;50.014;8.352;2023-10-08T15:21:48;22.70;99.90
28761;DHT22;15917;50.014;8.352;2023-10-08T15:24:17;22.60;99.90
28761;DHT22;15917;50.014;8.352;2023-10-08T15:26:42;22.50;99.90
28761;DHT22;15917;50.014;8.352;2023-10-08T15:29:07;22.50;99.90
28761;DHT22;15917;50.014;8.352;2023-10-08T15:31:33;22.50;99.90
28761;DHT22;15917;50.014;8.352;2023-10-08T15:33:59;22.40;99.90
28761;DHT22;15917;50.014;8.352;2023-10-08T15:36:25;22.40;99.90
28761;DHT22;15917;50.014;8.352;2023-10-08T15:38:52;22.30;99.90
28761;DHT22;15917;50.014;8.352;2023-10-08T15:41:17;22.30;99.90
28761;DHT22;15917;50.014;8.352;2023-10-08T15:43:49;22.30;99.90
28761;DHT22;15917;50.014;8.352;2023-10-08T15:46:16;22.20;99.90
28761;DHT22;15917;50.014;8.352;2023-10-08T15:48:42;22.10;99.90
28761;DHT22;15917;50.014;8.352;2023-10-08T15:51:08;22.00;99.90
28761;DHT22;15917;50.014;8.352;2023-10-08T15:53:34;22.00;99.90
28761;DHT22;15917;50.014;8.352;2023-10-08T15:56:00;21.90;99.90
28761;DHT22;15917;50.014;8.352;2023-10-08T15:58:25;21.90;99.90
28761;DHT22;15917;50.014;8.352;2023-10-08T16:00:51;21.90;99.90
28761;DHT22;15917;50.014;8.352;2023-10-08T16:03:18;21.90;99.90
28761;DHT22;15917;50.014;8.352;2023-10-08T16:05:44;21.80;99.90